Forside
METAR-TAF:

METAR-TAF

Lufthavne :

Aitkin Municipal Airport (Steve Kurtz Field)

Aitkin, Minnesota, USA

Breddekreds: 46-33N, længdekreds: 093-41W, højde: 367 m

Aktuelle vejr

Denne rapport blev lavet for 24 minutter siden, kl. 08:55 UTC
Vind stille
Temperatur -12°C
Fugtighed 92%
Tryk 1014 hPa
Sigt: 16.1 km
Spredte skyer i en højde af 1500 ft

METAR: KAIT 130855Z AUTO 00000KT 10SM SCT015 M12/M13 A2995 RMK AO2

Tid: 03:19 (09:19 UTC)


TAF: fraværende

Vejrobservationer og prognoser fra mere end 4000 lufthavne (METAR og TAF).

De gule og røde prikker repræsenterer de meteorologiske stationer.

Flyt musen over at se navnet på stationen.

Så klik over at se vejr observationer og prognoser.

At skifte det kort: Klik på de grønne knapper med et sort kors for at zoome ind; på den grønne knap med en bindestreg for at zoome ud; eller på de grønne pile for tilstødende kort.


METAR-TAF: